Time;durP1;ratioP1;P1;durP2;ratioP2;P2;SDS_P1;SDS_P2;PMS_P1;PMS_P2;Temp;Humidity;BMP_temperature;BMP_pressure;BME280_temperature;BME280_humidity;BME280_pressure;Samples;Min_cycle;Max_cycle;Signal;HPM_P1;HPM_P2
2022/12/12 00:02:12;;;;;;;35.45;10.98;;;;;;;-5.86;100.00;100611.88;6096669;28;20057;-66
2022/12/12 00:05:08;;;;;;;24.02;8.27;;;;;;;-5.55;100.00;100630.69;6097536;28;20025;-66
2022/12/12 00:08:04;;;;;;;26.35;8.93;;;;;;;-6.13;100.00;100629.88;6079847;28;20119;-65
2022/12/12 00:10:59;;;;;;;32.58;8.80;;;;;;;-6.68;100.00;100627.13;6097692;28;20063;-67
2022/12/12 00:13:55;;;;;;;22.77;8.53;;;;;;;-7.03;100.00;100622.88;6096707;28;20045;-67
2022/12/12 00:16:50;;;;;;;26.90;8.77;;;;;;;-7.02;100.00;100634.03;6097336;28;20520;-66
2022/12/12 00:19:45;;;;;;;23.70;8.20;;;;;;;-7.04;100.00;100626.34;6097533;28;20448;-67
2022/12/12 00:22:41;;;;;;;28.87;8.87;;;;;;;-6.03;100.00;100626.13;6095969;28;20028;-67
2022/12/12 00:25:36;;;;;;;38.50;10.40;;;;;;;-6.32;100.00;100631.28;6097326;28;20029;-67
2022/12/12 00:28:32;;;;;;;23.67;8.50;;;;;;;-6.93;100.00;100631.25;6097195;28;20337;-66
2022/12/12 00:31:28;;;;;;;23.65;8.68;;;;;;;-7.25;100.00;100632.00;6097346;28;20033;-67
2022/12/12 00:34:23;;;;;;;21.15;6.93;;;;;;;-6.84;100.00;100633.56;6096794;28;20033;-67
2022/12/12 00:37:18;;;;;;;32.97;8.10;;;;;;;-7.39;100.00;100614.31;6097363;28;20119;-65
2022/12/12 00:40:14;;;;;;;22.47;7.43;;;;;;;-7.60;100.00;100629.44;6102724;28;20029;-65
2022/12/12 00:43:09;;;;;;;28.57;9.30;;;;;;;-6.70;100.00;100627.16;6096410;28;20032;-67
2022/12/12 00:46:05;;;;;;;24.77;8.23;;;;;;;-7.36;100.00;100634.84;6097001;28;20033;-67
2022/12/12 00:49:00;;;;;;;20.02;7.22;;;;;;;-7.65;100.00;100637.25;6097101;28;20044;-66
2022/12/12 00:51:57;;;;;;;22.77;8.48;;;;;;;-7.63;100.00;100635.50;6096172;28;20072;-67
2022/12/12 00:54:52;;;;;;;22.43;7.30;;;;;;;-7.86;100.00;100625.72;6097219;28;20029;-66
2022/12/12 00:57:47;;;;;;;23.70;7.07;;;;;;;-7.58;100.00;100612.25;6096694;28;20033;-66
2022/12/12 01:00:43;;;;;;;39.53;9.50;;;;;;;-6.51;100.00;100621.50;6097246;28;20111;-66
2022/12/12 01:03:39;;;;;;;29.13;9.30;;;;;;;-6.70;100.00;100631.47;6096292;28;20401;-65
2022/12/12 01:06:35;;;;;;;23.33;9.70;;;;;;;-7.01;100.00;100626.25;6096501;28;20411;-66
2022/12/12 01:09:30;;;;;;;30.95;8.38;;;;;;;-7.28;100.00;100647.53;6097222;28;20120;-67
2022/12/12 01:12:26;;;;;;;25.17;8.60;;;;;;;-7.52;100.00;100648.97;6096002;28;20109;-67
2022/12/12 01:15:22;;;;;;;21.92;8.10;;;;;;;-7.72;100.00;100634.88;6096971;28;20029;-69
2022/12/12 01:18:18;;;;;;;27.17;8.50;;;;;;;-6.29;100.00;100654.41;6096919;28;20082;-67
2022/12/12 01:21:15;;;;;;;28.67;8.25;;;;;;;-6.50;100.00;100652.44;6096822;28;20029;-64
2022/12/12 01:24:11;;;;;;;25.08;7.10;;;;;;;-6.20;100.00;100661.91;6095661;28;20032;-67
2022/12/12 01:27:06;;;;;;;33.67;10.60;;;;;;;-5.91;100.00;100665.38;6095899;28;20036;-67
2022/12/12 01:30:03;;;;;;;28.60;10.73;;;;;;;-6.12;100.00;100652.22;6096916;28;20425;-67
2022/12/12 01:32:58;;;;;;;23.33;7.95;;;;;;;-5.67;100.00;100669.78;6095814;28;20044;-67
2022/12/12 01:35:54;;;;;;;21.17;7.90;;;;;;;-6.55;100.00;100654.28;6100530;28;20098;-65
2022/12/12 01:38:51;;;;;;;31.17;10.23;;;;;;;-7.20;100.00;100658.50;6100751;28;20043;-65
2022/12/12 01:41:46;;;;;;;30.05;8.93;;;;;;;-7.42;100.00;100676.19;6100511;28;20028;-67
2022/12/12 01:44:50;;;;;;;22.77;7.83;;;;;;;-7.78;100.00;100661.56;6100785;28;20065;-65
2022/12/12 01:47:45;;;;;;;16.02;6.95;;;;;;;-8.13;100.00;100638.31;6100615;28;20490;-66
2022/12/12 01:50:42;;;;;;;15.17;6.10;;;;;;;-8.00;100.00;100674.03;6100837;28;20075;-65
2022/12/12 01:53:37;;;;;;;20.08;7.70;;;;;;;-8.23;100.00;100657.38;6099991;28;20021;-65
2022/12/12 01:56:33;;;;;;;20.35;6.35;;;;;;;-8.33;100.00;100661.88;6082332;28;20482;-67
2022/12/12 01:59:29;;;;;;;18.25;6.82;;;;;;;-8.37;100.00;100667.13;6082685;28;20098;-67
2022/12/12 02:02:24;;;;;;;18.20;6.20;;;;;;;-8.34;100.00;100665.31;6099848;28;20112;-65
2022/12/12 02:05:28;;;;;;;22.80;8.98;;;;;;;-8.12;100.00;100676.84;6082717;28;20025;-67
2022/12/12 02:08:24;;;;;;;25.20;6.28;;;;;;;-8.31;100.00;100669.56;6082630;28;20036;-65
2022/12/12 02:11:19;;;;;;;19.33;7.38;;;;;;;-7.94;100.00;100675.63;6100167;28;20032;-65
2022/12/12 02:14:23;;;;;;;26.40;9.77;;;;;;;-8.12;100.00;100655.41;6099769;28;20107;-66
2022/12/12 02:17:45;;;;;;;26.17;7.15;;;;;;;-8.26;100.00;100668.56;6099828;28;20037;-66
2022/12/12 02:20:44;;;;;;;19.55;6.85;;;;;;;-8.29;100.00;100662.69;6100234;28;20497;-67
2022/12/12 02:24:10;;;;;;;19.98;5.80;;;;;;;-8.33;100.00;100661.88;6099270;28;20071;-68
2022/12/12 02:27:35;;;;;;;20.95;7.65;;;;;;;-8.27;100.00;100666.06;6099851;28;20033;-68
2022/12/12 02:31:04;;;;;;;25.02;7.20;;;;;;;-7.73;100.00;100658.88;6082165;28;20032;-67
2022/12/12 02:34:08;;;;;;;20.25;7.20;;;;;;;-7.29;100.00;100662.16;6081470;28;20031;-66
2022/12/12 02:37:11;;;;;;;29.48;7.43;;;;;;;-7.64;100.00;100662.13;6099494;28;20037;-66
2022/12/12 02:40:18;;;;;;;32.45;9.80;;;;;;;-6.82;100.00;100652.44;6081817;28;20537;-67
2022/12/12 02:43:33;;;;;;;23.08;7.43;;;;;;;-6.63;100.00;100678.56;6098991;28;20053;-68
2022/12/12 02:46:43;;;;;;;25.67;8.68;;;;;;;-6.98;100.00;100687.16;6098884;28;20429;-68
2022/12/12 02:49:50;;;;;;;25.85;9.25;;;;;;;-7.25;100.00;100679.22;6095449;28;20090;-68
2022/12/12 02:52:46;;;;;;;21.08;8.45;;;;;;;-6.65;100.00;100670.84;6080721;28;20044;-68
2022/12/12 02:55:42;;;;;;;26.40;9.10;;;;;;;-6.78;100.00;100690.09;6099333;28;20461;-67
2022/12/12 02:58:37;;;;;;;29.10;9.13;;;;;;;-6.81;100.00;100675.56;6098864;28;20040;-66
2022/12/12 03:02:09;;;;;;;24.43;8.97;;;;;;;-6.36;100.00;100695.91;6098761;28;20033;-66
2022/12/12 03:09:03;;;;;;;30.77;9.43;;;;;;;-6.25;100.00;100686.13;6099109;28;20029;-66
2022/12/12 03:12:38;;;;;;;31.55;9.68;;;;;;;-6.97;100.00;100684.56;6080736;28;20053;-66
2022/12/12 03:15:56;;;;;;;25.20;9.02;;;;;;;-7.45;100.00;100689.16;6080444;28;20039;-67
2022/12/12 03:23:21;;;;;;;33.17;9.80;;;;;;;-7.57;100.00;100684.25;6098608;28;20044;-67
2022/12/12 03:26:23;;;;;;;27.42;8.52;;;;;;;-7.65;100.00;100672.44;6028140;28;20063;-68
2022/12/12 03:29:27;;;;;;;30.75;9.82;;;;;;;-7.48;100.00;100678.91;6080863;28;20039;-66
2022/12/12 03:32:26;;;;;;;24.75;9.13;;;;;;;-7.44;100.00;100671.94;6079920;28;20083;-66
2022/12/12 03:35:23;;;;;;;23.13;8.98;;;;;;;-7.35;100.00;100676.91;6097900;28;20051;-67
2022/12/12 03:38:24;;;;;;;29.90;10.50;;;;;;;-7.26;100.00;100667.25;6097922;28;20037;-66
2022/12/12 03:41:21;;;;;;;32.88;11.15;;;;;;;-7.13;100.00;100661.78;6080661;28;20044;-65
2022/12/12 03:44:21;;;;;;;24.35;8.02;;;;;;;-6.36;100.00;100658.03;6079615;28;20040;-67
2022/12/12 03:47:24;;;;;;;25.25;9.38;;;;;;;-6.44;100.00;100662.56;6097862;28;20041;-65
2022/12/12 03:50:21;;;;;;;35.80;11.48;;;;;;;-6.41;100.00;100665.06;6080459;28;20021;-68
2022/12/12 03:53:28;;;;;;;34.38;12.02;;;;;;;-6.77;100.00;100668.63;6079392;28;20033;-67
2022/12/12 03:56:29;;;;;;;41.47;11.57;;;;;;;-7.22;100.00;100662.00;6079399;28;20036;-67
2022/12/12 03:59:47;;;;;;;34.45;10.88;;;;;;;-7.26;100.00;100667.25;6080135;28;20478;-66
2022/12/12 04:03:00;;;;;;;28.70;9.35;;;;;;;-7.44;100.00;100661.66;6079345;28;20040;-66
2022/12/12 04:06:25;;;;;;;30.95;10.30;;;;;;;-7.37;100.00;100665.78;6079428;28;20037;-68
2022/12/12 04:13:02;;;;;;;32.42;11.77;;;;;;;-6.23;100.00;100668.88;6097102;28;20033;-66
2022/12/12 04:16:05;;;;;;;40.20;11.85;;;;;;;-5.96;100.00;100659.50;6077780;28;20116;-68
2022/12/12 04:19:08;;;;;;;26.45;9.98;;;;;;;-5.93;100.00;100638.78;6097505;28;20082;-68
2022/12/12 04:25:28;;;;;;;39.30;13.38;;;;;;;-5.76;100.00;100686.38;6082428;28;20051;-66
2022/12/12 04:28:24;;;;;;;32.53;10.85;;;;;;;-6.46;100.00;100691.84;6091009;28;20117;-66
2022/12/12 04:31:22;;;;;;;30.25;10.55;;;;;;;-6.81;100.00;100700.50;6079668;28;20037;-66
2022/12/12 04:34:27;;;;;;;24.25;9.18;;;;;;;-7.36;100.00;100681.19;6078426;28;20102;-67
2022/12/12 04:37:39;;;;;;;25.70;10.48;;;;;;;-7.50;100.00;100698.66;6079313;28;20067;-68
2022/12/12 04:40:37;;;;;;;25.98;10.25;;;;;;;-7.82;100.00;100680.50;6079129;28;20041;-68
2022/12/12 04:43:34;;;;;;;27.58;9.32;;;;;;;-7.89;100.00;100704.69;6078708;28;20029;-66
2022/12/12 04:46:32;;;;;;;31.48;11.20;;;;;;;-7.98;100.00;100699.72;6079137;28;20036;-65
2022/12/12 04:49:28;;;;;;;25.35;9.55;;;;;;;-7.70;100.00;100697.44;6079173;28;20037;-65
2022/12/12 04:52:24;;;;;;;37.30;10.85;;;;;;;-6.87;100.00;100701.47;6096532;28;20032;-67
2022/12/12 04:55:29;;;;;;;21.60;9.57;;;;;;;-6.43;100.00;100700.34;6096828;28;20049;-66
2022/12/12 04:58:25;;;;;;;32.42;10.38;;;;;;;-6.45;100.00;100691.81;6094264;28;20533;-66
2022/12/12 05:01:22;;;;;;;37.45;10.77;;;;;;;-7.01;100.00;100711.28;6079103;28;20051;-68
2022/12/12 05:04:24;;;;;;;32.13;12.13;;;;;;;-7.47;100.00;100695.19;6095979;28;20112;-66
2022/12/12 05:07:44;;;;;;;29.88;11.77;;;;;;;-7.20;100.00;100696.31;6079104;28;20025;-67
2022/12/12 05:10:44;;;;;;;32.97;10.93;;;;;;;-7.66;100.00;100699.06;6087702;28;20122;-66
2022/12/12 05:13:41;;;;;;;31.85;11.05;;;;;;;-7.41;100.00;100707.94;6100421;28;20500;-65
2022/12/12 05:16:52;;;;;;;24.67;9.00;;;;;;;-7.10;100.00;100697.78;6101488;28;20033;-67
2022/12/12 05:19:48;;;;;;;33.92;10.57;;;;;;;-6.70;100.00;100688.19;6083719;28;20117;-68
2022/12/12 05:22:43;;;;;;;36.70;10.97;;;;;;;-6.56;100.00;100709.31;6100798;28;20037;-68
2022/12/12 05:25:38;;;;;;;41.33;10.80;;;;;;;-6.60;100.00;100704.28;6101645;28;20267;-68
2022/12/12 05:28:33;;;;;;;33.97;11.80;;;;;;;-6.81;100.00;100703.06;6101323;28;20059;-67
2022/12/12 05:31:29;;;;;;;40.43;13.17;;;;;;;-7.24;100.00;100716.13;6101262;28;20389;-67
2022/12/12 05:34:24;;;;;;;23.93;10.40;;;;;;;-7.49;100.00;100712.41;6100274;28;20108;-68
2022/12/12 05:37:20;;;;;;;35.65;10.65;;;;;;;-7.55;100.00;100700.50;6100872;28;20518;-68
2022/12/12 05:40:15;;;;;;;31.40;11.17;;;;;;;-7.45;100.00;100712.31;6101261;28;20553;-66
2022/12/12 05:43:10;;;;;;;34.37;9.80;;;;;;;-7.38;100.00;100698.41;6099778;28;20040;-66
2022/12/12 05:46:06;;;;;;;27.33;10.27;;;;;;;-7.33;100.00;100719.75;6100871;28;20029;-67
2022/12/12 05:49:01;;;;;;;30.77;9.82;;;;;;;-7.41;100.00;100723.38;6100984;28;20260;-68
2022/12/12 05:51:56;;;;;;;37.17;11.80;;;;;;;-7.43;100.00;100723.41;6100106;28;20040;-67
2022/12/12 05:54:52;;;;;;;29.87;12.07;;;;;;;-7.63;100.00;100701.53;6100186;28;20276;-67
2022/12/12 05:57:47;;;;;;;28.52;9.55;;;;;;;-7.56;100.00;100719.44;6100451;28;20028;-68
2022/12/12 06:00:43;;;;;;;32.33;9.67;;;;;;;-7.65;100.00;100735.06;6100473;28;20041;-67
2022/12/12 06:03:38;;;;;;;32.47;9.63;;;;;;;-7.84;100.00;100726.00;6078171;28;20440;-68
2022/12/12 06:06:34;;;;;;;36.70;10.50;;;;;;;-7.86;100.00;100720.91;6098913;28;20787;-66
2022/12/12 06:09:29;;;;;;;34.80;9.70;;;;;;;-7.93;100.00;100715.91;6099606;28;20025;-66
2022/12/12 06:12:24;;;;;;;24.88;9.95;;;;;;;-7.83;100.00;100732.88;6099767;28;20064;-66
2022/12/12 06:15:20;;;;;;;27.43;10.70;;;;;;;-7.45;100.00;100730.34;6078972;28;20029;-65
2022/12/12 06:18:15;;;;;;;39.23;11.73;;;;;;;-7.78;100.00;100737.91;6110712;28;20425;-67
2022/12/12 06:21:11;;;;;;;26.87;9.43;;;;;;;-7.91;100.00;100734.75;6098941;28;20341;-66
2022/12/12 06:24:07;;;;;;;28.40;8.60;;;;;;;-7.96;100.00;100723.69;6099804;28;20029;-66
2022/12/12 06:27:02;;;;;;;39.53;12.50;;;;;;;-7.94;100.00;100727.09;6100142;28;20049;-67
2022/12/12 06:29:57;;;;;;;27.83;9.93;;;;;;;-7.64;100.00;100721.31;6099237;28;20031;-66
2022/12/12 06:32:53;;;;;;;34.23;9.27;;;;;;;-7.65;100.00;100729.91;6099251;28;20064;-66
2022/12/12 06:36:18;;;;;;;28.90;10.27;;;;;;;-7.72;100.00;100745.50;6099613;28;20041;-67
2022/12/12 06:39:13;;;;;;;29.77;9.15;;;;;;;-7.71;100.00;100745.47;6094511;28;20063;-65
2022/12/12 06:42:08;;;;;;;32.93;10.20;;;;;;;-7.49;100.00;100757.00;6098402;28;20029;-67
2022/12/12 06:45:04;;;;;;;30.93;10.90;;;;;;;-7.26;100.00;100738.50;6099167;28;20279;-66
2022/12/12 06:47:59;;;;;;;31.30;10.15;;;;;;;-7.07;100.00;100749.22;6099120;28;20036;-67
2022/12/12 06:50:54;;;;;;;33.05;10.93;;;;;;;-6.81;100.00;100750.31;6099349;28;20037;-68
2022/12/12 06:53:50;;;;;;;25.13;9.50;;;;;;;-6.47;100.00;100758.06;6098004;28;20671;-68
2022/12/12 06:56:45;;;;;;;35.83;12.73;;;;;;;-6.15;100.00;100755.50;6097832;28;20070;-67
2022/12/12 06:59:41;;;;;;;29.73;9.97;;;;;;;-5.96;100.00;100766.16;6098108;28;20044;-66
2022/12/12 07:02:36;;;;;;;31.23;10.10;;;;;;;-6.03;100.00;100761.22;6097994;28;20119;-66
2022/12/12 07:05:32;;;;;;;33.20;10.90;;;;;;;-5.55;100.00;100781.34;6099252;28;20028;-66
2022/12/12 07:08:27;;;;;;;33.10;10.93;;;;;;;-5.39;100.00;100753.31;6098937;28;20049;-66
2022/12/12 07:11:24;;;;;;;35.20;11.10;;;;;;;-5.69;100.00;100764.53;6098865;28;20533;-67
2022/12/12 07:14:20;;;;;;;28.02;8.20;;;;;;;-5.66;100.00;100761.84;6098218;28;20040;-66
2022/12/12 07:17:15;;;;;;;30.50;10.43;;;;;;;-5.63;100.00;100765.22;6103590;28;20052;-66
2022/12/12 07:20:10;;;;;;;38.27;10.80;;;;;;;-5.74;100.00;100767.25;6099175;28;20039;-67
2022/12/12 07:23:06;;;;;;;32.97;10.97;;;;;;;-5.89;100.00;100790.91;6097949;28;20393;-66
2022/12/12 07:26:03;;;;;;;26.17;9.23;;;;;;;-5.74;100.00;100782.75;6098908;28;20043;-66
2022/12/12 07:28:58;;;;;;;37.97;10.43;;;;;;;-5.73;100.00;100783.56;6098030;28;20516;-65
2022/12/12 07:31:53;;;;;;;29.23;9.77;;;;;;;-5.60;100.00;100798.66;6097694;28;20021;-66
2022/12/12 07:34:49;;;;;;;33.27;10.60;;;;;;;-5.52;100.00;100798.47;6098626;28;20497;-67
2022/12/12 07:37:44;;;;;;;32.07;9.70;;;;;;;-5.63;100.00;100803.09;6098195;28;20275;-66
2022/12/12 07:40:39;;;;;;;35.50;11.43;;;;;;;-5.60;100.00;100803.00;6098105;28;20398;-67
2022/12/12 07:43:36;;;;;;;36.83;10.37;;;;;;;-5.67;100.00;100796.31;6097623;28;20025;-67
2022/12/12 07:46:32;;;;;;;33.03;10.00;;;;;;;-5.59;100.00;100808.13;6097624;28;20283;-66
2022/12/12 07:49:28;;;;;;;44.90;13.60;;;;;;;-5.58;100.00;100808.97;6097942;28;20474;-67
2022/12/12 07:52:23;;;;;;;33.13;10.25;;;;;;;-5.52;100.00;100819.13;6096957;28;20039;-64
2022/12/12 07:55:18;;;;;;;34.65;10.45;;;;;;;-5.60;100.00;100811.56;6098207;28;20477;-66
2022/12/12 07:58:14;;;;;;;37.37;11.40;;;;;;;-5.47;100.00;100806.94;6097377;28;20037;-66
2022/12/12 08:01:12;;;;;;;41.20;10.07;;;;;;;-5.40;100.00;100821.34;6097799;28;20033;-68
2022/12/12 08:04:07;;;;;;;33.88;11.10;;;;;;;-5.45;100.00;100811.16;6079073;28;20091;-67
2022/12/12 08:07:03;;;;;;;34.27;9.90;;;;;;;-5.45;100.00;100802.56;6097136;28;20033;-68
2022/12/12 08:09:58;;;;;;;29.20;11.55;;;;;;;-5.29;100.00;100808.13;6097279;28;20021;-67
2022/12/12 08:12:53;;;;;;;29.07;11.07;;;;;;;-5.28;100.00;100813.28;6096879;28;20033;-66
2022/12/12 08:15:48;;;;;;;24.87;8.80;;;;;;;-5.02;100.00;100810.75;6097544;28;20025;-67
2022/12/12 08:18:44;;;;;;;32.77;9.60;;;;;;;-4.93;100.00;100810.47;6097454;28;20051;-66
2022/12/12 08:21:41;;;;;;;34.85;10.15;;;;;;;-5.15;100.00;100788.75;6097440;28;20041;-67
2022/12/12 08:24:36;;;;;;;32.47;10.98;;;;;;;-4.98;100.00;100791.69;6096966;28;20449;-67
2022/12/12 08:27:31;;;;;;;28.00;10.23;;;;;;;-4.96;100.00;100808.00;6097039;28;20033;-67
2022/12/12 08:30:27;;;;;;;32.38;9.43;;;;;;;-5.00;100.00;100808.97;6079346;28;20037;-66
2022/12/12 08:33:22;;;;;;;28.27;8.93;;;;;;;-4.95;100.00;100814.00;6096698;28;20028;-67
2022/12/12 08:36:20;;;;;;;30.90;9.47;;;;;;;-4.89;100.00;100812.06;6096927;28;20033;-67
2022/12/12 08:39:16;;;;;;;36.65;10.80;;;;;;;-4.96;100.00;100805.41;6096618;28;20041;-66
2022/12/12 08:42:12;;;;;;;41.23;11.37;;;;;;;-4.95;100.00;100812.28;6095323;28;20033;-66
2022/12/12 08:45:07;;;;;;;38.80;10.95;;;;;;;-4.94;100.00;100802.75;6096728;28;20340;-67
2022/12/12 08:48:03;;;;;;;40.88;11.02;;;;;;;-4.91;100.00;100805.25;6096717;28;20107;-67
2022/12/12 08:50:59;;;;;;;39.55;11.35;;;;;;;-4.86;100.00;100803.38;6096212;28;20035;-67
2022/12/12 08:53:54;;;;;;;31.65;9.95;;;;;;;-4.68;100.00;100814.88;6095743;28;20037;-66
2022/12/12 08:56:49;;;;;;;42.77;12.30;;;;;;;-4.56;100.00;100824.84;6095115;28;20572;-67
2022/12/12 08:59:45;;;;;;;45.80;13.70;;;;;;;-4.45;100.00;100826.19;6097061;28;20428;-67
2022/12/12 09:02:40;;;;;;;40.95;10.55;;;;;;;-4.49;100.00;100800.47;6096266;28;20108;-66
2022/12/12 09:05:36;;;;;;;31.55;10.30;;;;;;;-4.38;100.00;100811.34;6096881;28;20033;-67
2022/12/12 09:08:31;;;;;;;34.13;9.80;;;;;;;-4.08;100.00;100817.22;6095963;28;20466;-67
2022/12/12 09:11:27;;;;;;;41.08;9.13;;;;;;;-4.09;100.00;100815.53;6096894;28;20045;-66
2022/12/12 09:14:22;;;;;;;30.52;10.38;;;;;;;-4.16;100.00;100822.66;6096125;28;20024;-67
2022/12/12 09:17:18;;;;;;;37.23;11.73;;;;;;;-4.19;100.00;100808.97;6091897;28;20067;-67
2022/12/12 09:20:13;;;;;;;40.33;11.98;;;;;;;-4.12;100.00;100816.47;6094950;28;20028;-68
2022/12/12 09:23:08;;;;;;;47.97;12.57;;;;;;;-3.96;100.00;100822.81;6096191;28;20121;-68
2022/12/12 09:26:06;;;;;;;39.97;11.17;;;;;;;-3.97;100.00;100812.53;6096596;28;20029;-67
2022/12/12 09:29:01;;;;;;;37.05;10.73;;;;;;;-3.75;100.00;100832.44;6096555;28;20037;-67
2022/12/12 09:31:57;;;;;;;37.30;10.50;;;;;;;-3.91;100.00;100815.75;6095414;28;20029;-68
2022/12/12 09:34:52;;;;;;;47.65;10.88;;;;;;;-3.74;100.00;100818.59;6096369;28;20028;-67
2022/12/12 09:37:47;;;;;;;34.23;10.47;;;;;;;-3.69;100.00;100829.63;6096101;28;20045;-67
2022/12/12 09:40:55;;;;;;;28.67;10.13;;;;;;;-3.53;100.00;100826.53;6096153;28;20032;-67
2022/12/12 09:43:59;;;;;;;;;;;;;;;-3.46;100.00;100822.81;6078097;28;20033;-68
2022/12/12 09:46:59;;;;;;;30.85;10.20;;;;;;;-3.39;100.00;100825.09;6077943;28;20330;-67
2022/12/12 09:49:55;;;;;;;42.05;12.52;;;;;;;-3.35;100.00;100825.84;6078726;28;20036;-68
2022/12/12 09:52:51;;;;;;;34.47;10.00;;;;;;;-3.40;100.00;100813.06;6077265;28;20036;-68
2022/12/12 09:55:52;;;;;;;39.75;12.40;;;;;;;-3.45;100.00;100816.72;6113422;28;20045;-67
2022/12/12 09:58:56;;;;;;;38.50;10.82;;;;;;;-3.48;100.00;100814.25;6110357;28;20040;-68
2022/12/12 10:02:01;;;;;;;36.70;11.20;;;;;;;-3.31;100.00;100817.91;6081712;28;20033;-67
2022/12/12 10:05:00;;;;;;;40.90;12.40;;;;;;;-3.20;100.00;100814.91;6066059;28;20066;-68
2022/12/12 10:08:11;;;;;;;35.33;11.90;;;;;;;-3.10;100.00;100824.06;6081491;28;20486;-68
2022/12/12 10:11:48;;;;;;;41.67;13.75;;;;;;;-3.06;100.00;100823.88;6082984;28;20056;-69
2022/12/12 10:14:36;;;;;;;65.32;22.05;;;;;;;-3.16;100.00;100799.19;6099459;28;20512;-68
2022/12/12 10:17:34;;;;;;;40.88;11.55;;;;;;;-3.22;100.00;100816.72;6113794;28;20056;-68
2022/12/12 10:20:31;;;;;;;41.25;13.13;;;;;;;-3.30;100.00;100816.16;6100340;28;20033;-69
2022/12/12 10:23:35;;;;;;;36.22;11.25;;;;;;;-3.13;100.00;100821.56;6081029;28;20120;-68
2022/12/12 10:26:30;;;;;;;37.70;11.07;;;;;;;-3.03;100.00;100831.53;6099558;28;20045;-69
2022/12/12 10:29:26;;;;;;;36.92;10.60;;;;;;;-3.11;100.00;100814.56;6100561;28;20055;-70
2022/12/12 10:32:27;;;;;;;36.60;12.48;;;;;;;-2.91;100.00;100835.41;6098830;28;20437;-69
2022/12/12 10:35:37;;;;;;;32.58;11.23;;;;;;;-2.90;100.00;100831.91;6078585;28;20033;-69
2022/12/12 10:38:54;;;;;;;33.88;9.85;;;;;;;-2.90;100.00;100833.66;6114191;28;20033;-69
2022/12/12 10:42:19;;;;;;;39.75;12.00;;;;;;;-2.99;100.00;100831.44;6099233;28;20037;-70
2022/12/12 10:45:35;;;;;;;33.75;10.60;;;;;;;-2.95;100.00;100831.25;6096767;28;20029;-69
2022/12/12 10:48:30;;;;;;;42.65;13.00;;;;;;;-3.09;100.00;100820.53;6097870;28;20078;-69
2022/12/12 10:51:26;;;;;;;37.57;10.63;;;;;;;-3.12;100.00;100818.06;6099947;28;20045;-71
2022/12/12 10:54:25;;;;;;;36.58;12.40;;;;;;;-3.13;100.00;100808.59;6080805;28;20029;-71
2022/12/12 10:57:26;;;;;;;32.42;11.32;;;;;;;-3.01;100.00;100811.56;6098142;28;20060;-71
2022/12/12 11:00:29;;;;;;;39.72;12.45;;;;;;;-3.02;100.00;100809.06;6099388;28;20048;-71
2022/12/12 11:03:36;;;;;;;28.15;10.57;;;;;;;-3.01;100.00;100810.72;6098271;28;20029;-71
2022/12/12 11:06:36;;;;;;;50.60;13.48;;;;;;;-3.01;100.00;100800.34;6080198;28;20037;-71
2022/12/12 11:09:31;;;;;;;37.30;11.23;;;;;;;-2.96;100.00;100801.00;6113122;28;20029;-72
2022/12/12 11:12:32;;;;;;;37.60;12.87;;;;;;;-2.91;100.00;100822.44;6097800;28;20122;-71
2022/12/12 11:15:31;;;;;;;27.88;10.13;;;;;;;-2.96;100.00;100815.75;6098658;28;20017;-71
2022/12/12 11:18:27;;;;;;;39.58;11.98;;;;;;;-3.05;100.00;100801.38;6080572;28;20478;-72
2022/12/12 11:21:23;;;;;;;37.38;11.63;;;;;;;-3.17;100.00;100799.22;6080282;28;20116;-72
2022/12/12 11:24:20;;;;;;;33.20;12.20;;;;;;;-3.21;100.00;100802.88;6098301;28;20037;-71
2022/12/12 11:27:27;;;;;;;34.70;10.40;;;;;;;-3.17;100.00;100809.59;6097847;28;20028;-71
2022/12/12 11:30:33;;;;;;;30.98;10.15;;;;;;;-3.22;100.00;100811.53;6080284;28;20119;-72
2022/12/12 11:33:44;;;;;;;34.92;10.93;;;;;;;-3.29;100.00;100794.53;6079793;28;20040;-72
2022/12/12 11:36:40;;;;;;;29.75;10.25;;;;;;;-3.25;100.00;100806.47;6080521;28;20112;-72
2022/12/12 11:39:44;;;;;;;37.35;11.27;;;;;;;-3.25;100.00;100785.72;6080149;28;20068;-71
2022/12/12 11:42:40;;;;;;;37.42;13.05;;;;;;;-3.22;100.00;100780.41;6097462;28;20374;-71
2022/12/12 11:45:35;;;;;;;37.97;12.37;;;;;;;-3.18;100.00;100782.00;6096863;28;20174;-71
2022/12/12 11:48:41;;;;;;;42.70;12.57;;;;;;;-3.15;100.00;100795.69;6098217;28;20037;-71
2022/12/12 11:51:43;;;;;;;35.45;11.05;;;;;;;-3.16;100.00;100785.38;6080584;28;20037;-71
2022/12/12 11:54:39;;;;;;;35.75;12.35;;;;;;;-3.10;100.00;100805.91;6097698;28;20409;-71
2022/12/12 11:57:41;;;;;;;39.37;11.17;;;;;;;-2.96;100.00;100793.22;6097309;28;20083;-71
2022/12/12 12:00:51;;;;;;;33.70;12.32;;;;;;;-2.98;100.00;100805.41;6097102;28;20023;-71
2022/12/12 12:04:05;;;;;;;38.97;11.93;;;;;;;-2.99;100.00;100803.75;6085915;28;20060;-71
2022/12/12 12:07:25;;;;;;;38.55;12.05;;;;;;;-3.05;100.00;100788.41;6096960;28;20033;-71
2022/12/12 12:10:46;;;;;;;30.98;9.98;;;;;;;-2.91;100.00;100806.88;6086669;28;20029;-71
2022/12/12 12:14:17;;;;;;;35.20;10.38;;;;;;;-2.75;100.00;100800.19;6079644;28;20061;-71
2022/12/12 12:17:31;;;;;;;41.08;11.00;;;;;;;-2.81;100.00;100815.16;5999095;28;20126;-71
2022/12/12 12:20:56;;;;;;;41.05;12.57;;;;;;;-2.79;100.00;100803.81;6087144;28;20029;-71
2022/12/12 12:23:54;;;;;;;37.03;9.88;;;;;;;-2.70;100.00;100810.38;6096094;28;20025;-71
2022/12/12 12:27:14;;;;;;;32.95;10.68;;;;;;;-2.70;100.00;100803.44;6094305;28;20036;-71
2022/12/12 12:30:22;;;;;;;34.25;10.73;;;;;;;-2.71;100.00;100804.34;6094781;28;20049;-71
2022/12/12 12:33:34;;;;;;;28.08;11.02;;;;;;;-2.73;100.00;100800.97;6093076;28;20024;-71
2022/12/12 12:36:46;;;;;;;35.85;9.98;;;;;;;-2.77;100.00;100799.38;6094136;28;20044;-71
2022/12/12 12:40:01;;;;;;;27.73;8.18;;;;;;;-2.67;100.00;100792.09;6094193;28;20033;-72
2022/12/12 12:42:59;;;;;;;;;;;;;;;-2.61;100.00;100808.25;6078862;28;20051;-71
2022/12/12 12:45:56;;;;;;;33.72;11.07;;;;;;;-2.65;100.00;100806.72;6093960;28;20085;-71
2022/12/12 12:48:56;;;;;;;32.10;10.00;;;;;;;-2.65;100.00;100778.16;6078315;28;20025;-72
2022/12/12 12:51:58;;;;;;;30.50;9.80;;;;;;;-2.62;100.00;100797.94;6075727;28;20044;-72
2022/12/12 12:54:55;;;;;;;39.35;12.38;;;;;;;-2.61;100.00;100792.69;6078702;28;20462;-71
2022/12/12 12:57:51;;;;;;;37.40;12.15;;;;;;;-2.70;100.00;100787.88;6079003;28;20037;-72
2022/12/12 13:00:54;;;;;;;27.55;10.50;;;;;;;-2.69;100.00;100786.97;6097224;28;20557;-72
2022/12/12 13:04:24;;;;;;;34.10;10.45;;;;;;;-2.66;100.00;100786.00;6096753;28;20033;-71
2022/12/12 13:07:27;;;;;;;40.00;11.25;;;;;;;-2.74;100.00;100791.50;6075461;28;20033;-72
2022/12/12 13:10:26;;;;;;;27.63;9.60;;;;;;;-2.73;100.00;100781.97;6112289;28;20029;-71
2022/12/12 13:13:30;;;;;;;32.65;9.90;;;;;;;-2.68;100.00;100796.44;6096370;28;20032;-72
2022/12/12 13:16:31;;;;;;;29.65;9.00;;;;;;;-2.73;100.00;100785.41;6095924;28;20037;-72
2022/12/12 13:19:31;;;;;;;29.80;9.25;;;;;;;-2.71;100.00;100793.97;6079184;28;20505;-72
2022/12/12 13:22:32;;;;;;;31.40;9.93;;;;;;;-2.71;100.00;100793.13;6077685;28;20056;-72
2022/12/12 13:25:50;;;;;;;31.25;9.73;;;;;;;-2.71;100.00;100793.97;6078902;28;20057;-72
2022/12/12 13:28:50;;;;;;;31.90;9.15;;;;;;;-2.72;100.00;100781.91;6079528;28;20048;-72
2022/12/12 13:32:19;;;;;;;36.95;10.90;;;;;;;-2.67;100.00;100795.56;6084165;28;20033;-72
2022/12/12 13:35:21;;;;;;;34.92;10.27;;;;;;;-2.79;100.00;100790.84;6095812;28;20056;-72
2022/12/12 13:38:21;;;;;;;28.63;9.20;;;;;;;-2.88;100.00;100775.63;6083096;28;20473;-72
2022/12/12 13:41:16;;;;;;;28.20;8.10;;;;;;;-2.75;100.00;100784.63;6083314;28;20091;-72
2022/12/12 13:44:31;;;;;;;46.78;14.23;;;;;;;-2.87;100.00;100782.50;6100746;28;20470;-71
2022/12/12 13:47:27;;;;;;;31.30;10.25;;;;;;;-2.78;100.00;100792.53;6099953;28;20051;-72
2022/12/12 13:50:22;;;;;;;26.80;8.83;;;;;;;-2.87;100.00;100785.09;6100559;28;20025;-71